SpainFixed distance
Rialp Matxicots Extrem
17 Sep2011
Distance
82km
Finishers
4740 men7 women
Winning time
12:38:17h
Median pace
4.97km/h
Pace distribution
47 finishers · 3.78–6.49 km/h · mean 4.92
Every finisher ran the same 82 km course, so these paces are directly comparable.
Histogram of finisher pace. 47 finishers ranged from 3.78 to 6.49 kilometres per hour, with a mean of 4.92 and a median of 4.97. The busiest band is 4.0 to 4.5 kilometres per hour, with 16 finishers.
Results
Ranks 1–47 of 47
| Rank | Runner | Time | Pace | Cat. | Placing |
|---|---|---|---|---|---|
| 1 | Claverol | 12:38:17h | 6.49 | M35 | 1st M · 1st M35 |
| 2 | Spiridon-Koala'S Team | 12:38:19h | 6.49 | M23 | 2nd M · 1st M23 |
| 3 | Demonfit Vivegredos | 12:40:11h | 6.47 | M35 | 3rd M · 2nd M35 |
| 4 | Club Esquí Berguedà | 12:48:59h | 6.40 | — | 4th M |
| 5 | Tierra Trágame | 13:49:05h | 5.93 | M23 | 5th M · 2nd M23 |
| 6 | 13:56:51h | 5.88 | — | 6th M | |
| 7 | Club Txurregi | 14:08:25h | 5.80 | M40 | 7th M · 1st M40 |
| 8 | A.E. Diedre | 14:15:35h | 5.75 | M23 | 8th M · 3rd M23 |
| 9 | Fondistes Penedès | 14:26:08h | 5.68 | M35 | 9th M · 3rd M35 |
| 10 | C.E. Alt Empordà | 14:35:21h | 5.62 | M40 | 10th M · 2nd M40 |
| 11 | Cet | 14:57:21h | 5.48 | M35 | 11th M · 4th M35 |
| 12 | C. Excurs. Uecanoia | 14:58:41h | 5.47 | W23 | 1st F · 1st W23 |
| 13 | 15:13:19h | 5.39 | M45 | 12th M · 1st M45 | |
| 14 | C. Excurs. Olot | 15:21:41h | 5.34 | M45 | 13th M · 2nd M45 |
| 15 | C. Excurs. Olot | 15:21:41h | 5.34 | W40 | 2nd F · 1st W40 |
| 16 | Club Triatló Sabadell | 15:39:35h | 5.24 | M35 | 14th M · 5th M35 |
| 17 | Run Speed Tarraco | 15:56:41h | 5.14 | M40 | 15th M · 3rd M40 |
| 18 | 16:07:33h | 5.08 | M40 | 16th M · 4th M40 | |
| 19 | Fortuna K.E. | 16:09:58h | 5.07 | W23 | 3rd F · 2nd W23 |
| 20 | Alcarreño De Montaña | 16:09:58h | 5.07 | — | 3rd F |
| 21 | A.E. Diedre | 16:23:04h | 5.00 | M35 | 17th M · 6th M35 |
| 22 | 16:28:49h | 4.98 | M23 | 18th M · 4th M23 | |
| 23 | A.E. Pallars | 16:28:52h | 4.97 | M23 | 19th M · 5th M23 |
| 24 | Caf Oloron | 16:28:53h | 4.97 | M23 | 20th M · 6th M23 |
| 25 | 17:42:24h | 4.63 | — | 21st M | |
| 26 | 17:42:30h | 4.63 | M23 | 22nd M · 7th M23 | |
| 27 | Colla Corriol | 17:42:32h | 4.63 | — | 23rd M |
| 28 | Matamon Trail | 17:59:24h | 4.56 | M35 | 24th M · 7th M35 |
| 29 | Mis Jueves | 17:59:26h | 4.56 | M35 | 25th M · 8th M35 |
| 30 | 18:15:31h | 4.49 | — | 26th M | |
| 31 | Agrup. Excurs. Granollers | 18:27:00h | 4.44 | W45 | 5th F · 1st W45 |
| 32 | 18:46:33h | 4.37 | M35 | 27th M · 9th M35 | |
| 33 | 18:46:44h | 4.37 | M35 | 28th M · 10th M35 | |
| 34 | Club Alcarreño De Montaña | 18:54:24h | 4.34 | — | 29th M |
| 35 | C. Excurs. Madteam | 18:54:25h | 4.34 | M35 | 30th M · 11th M35 |
| 36 | Ultrarun | 19:06:00h | 4.29 | M40 | 31st M · 5th M40 |
| 37 | C. Excurs. Uecanoia | 19:45:59h | 4.15 | M35 | 32nd M · 12th M35 |
| 38 | Tierra Trágame | 19:46:00h | 4.15 | M40 | 33rd M · 6th M40 |
| 39 | 23 Tot Distrau Team | 19:46:20h | 4.15 | M23 | 34th M · 8th M23 |
| 40 | 19:46:35h | 4.15 | M50 | 35th M · 1st M50 | |
| 41 | C. Excurs. De Lleida | 20:00:45h | 4.10 | — | 36th M |
| 42 | C. Excurs. Torelló | 20:01:00h | 4.10 | M50 | 37th M · 2nd M50 |
| 43 | Cei | 20:07:00h | 4.08 | W23 | 6th F · 3rd W23 |
| 44 | Matamon Trail | 20:08:35h | 4.07 | M23 | 38th M · 9th M23 |
| 45 | Agrup. Excurs. Granollers | 20:09:02h | 4.07 | M50 | 39th M · 3rd M50 |
| 46 | Atletisme Balear | 21:41:57h | 3.78 | M23 | 40th M · 10th M23 |
| 47 | C. Excurs. Alpicat | 21:41:57h | 3.78 | W23 | 7th F · 4th W23 |
- 1Claverol1st M · 1st M35Time12:38:17hPace6.49Cat.M35
- 2Spiridon-Koala'S Team2nd M · 1st M23Time12:38:19hPace6.49Cat.M23
- 3Demonfit Vivegredos3rd M · 2nd M35Time12:40:11hPace6.47Cat.M35
- 4Club Esquí Berguedà4th MTime12:48:59hPace6.40
- 5Tierra Trágame5th M · 2nd M23Time13:49:05hPace5.93Cat.M23
- 66th MTime13:56:51hPace5.88
- 7Club Txurregi7th M · 1st M40Time14:08:25hPace5.80Cat.M40
- 8A.E. Diedre8th M · 3rd M23Time14:15:35hPace5.75Cat.M23
- 9Fondistes Penedès9th M · 3rd M35Time14:26:08hPace5.68Cat.M35
- 10C.E. Alt Empordà10th M · 2nd M40Time14:35:21hPace5.62Cat.M40
- 11Cet11th M · 4th M35Time14:57:21hPace5.48Cat.M35
- 12C. Excurs. Uecanoia1st F · 1st W23Time14:58:41hPace5.47Cat.W23
- 1312th M · 1st M45Time15:13:19hPace5.39Cat.M45
- 14C. Excurs. Olot13th M · 2nd M45Time15:21:41hPace5.34Cat.M45
- 15C. Excurs. Olot2nd F · 1st W40Time15:21:41hPace5.34Cat.W40
- 16Club Triatló Sabadell14th M · 5th M35Time15:39:35hPace5.24Cat.M35
- 17Run Speed Tarraco15th M · 3rd M40Time15:56:41hPace5.14Cat.M40
- 1816th M · 4th M40Time16:07:33hPace5.08Cat.M40
- 19Fortuna K.E.3rd F · 2nd W23Time16:09:58hPace5.07Cat.W23
- 20Alcarreño De Montaña3rd FTime16:09:58hPace5.07
- 21A.E. Diedre17th M · 6th M35Time16:23:04hPace5.00Cat.M35
- 2218th M · 4th M23Time16:28:49hPace4.98Cat.M23
- 23A.E. Pallars19th M · 5th M23Time16:28:52hPace4.97Cat.M23
- 24Caf Oloron20th M · 6th M23Time16:28:53hPace4.97Cat.M23
- 2521st MTime17:42:24hPace4.63
- 2622nd M · 7th M23Time17:42:30hPace4.63Cat.M23
- 27Colla Corriol23rd MTime17:42:32hPace4.63
- 28Matamon Trail24th M · 7th M35Time17:59:24hPace4.56Cat.M35
- 29Mis Jueves25th M · 8th M35Time17:59:26hPace4.56Cat.M35
- 3026th MTime18:15:31hPace4.49
- 31Agrup. Excurs. Granollers5th F · 1st W45Time18:27:00hPace4.44Cat.W45
- 3227th M · 9th M35Time18:46:33hPace4.37Cat.M35
- 3328th M · 10th M35Time18:46:44hPace4.37Cat.M35
- 34Club Alcarreño De Montaña29th MTime18:54:24hPace4.34
- 35C. Excurs. Madteam30th M · 11th M35Time18:54:25hPace4.34Cat.M35
- 36Ultrarun31st M · 5th M40Time19:06:00hPace4.29Cat.M40
- 37C. Excurs. Uecanoia32nd M · 12th M35Time19:45:59hPace4.15Cat.M35
- 38Tierra Trágame33rd M · 6th M40Time19:46:00hPace4.15Cat.M40
- 3923 Tot Distrau Team34th M · 8th M23Time19:46:20hPace4.15Cat.M23
- 4035th M · 1st M50Time19:46:35hPace4.15Cat.M50
- 41C. Excurs. De Lleida36th MTime20:00:45hPace4.10
- 42C. Excurs. Torelló37th M · 2nd M50Time20:01:00hPace4.10Cat.M50
- 43Cei6th F · 3rd W23Time20:07:00hPace4.08Cat.W23
- 44Matamon Trail38th M · 9th M23Time20:08:35hPace4.07Cat.M23
- 45Agrup. Excurs. Granollers39th M · 3rd M50Time20:09:02hPace4.07Cat.M50
- 46Atletisme Balear40th M · 10th M23Time21:41:57hPace3.78Cat.M23
- 47C. Excurs. Alpicat7th F · 4th W23Time21:41:57hPace3.78Cat.W23